sensor_id;sensor_type;location;lat;lon;timestamp;P1;durP1;ratioP1;P2;durP2;ratioP2
10497;SDS011;5296;51.060;13.750;2023-04-28T00:01:40;7.68;;;6.78;;
10497;SDS011;5296;51.060;13.750;2023-04-28T00:06:41;8.02;;;7.03;;
10497;SDS011;5296;51.060;13.750;2023-04-28T00:11:43;7.85;;;7.13;;
10497;SDS011;5296;51.060;13.750;2023-04-28T00:16:46;7.63;;;6.80;;
10497;SDS011;5296;51.060;13.750;2023-04-28T00:21:48;8.02;;;7.00;;
10497;SDS011;5296;51.060;13.750;2023-04-28T00:26:50;7.53;;;6.40;;
10497;SDS011;5296;51.060;13.750;2023-04-28T00:31:52;8.13;;;7.28;;
10497;SDS011;5296;51.060;13.750;2023-04-28T00:36:54;7.00;;;6.22;;
10497;SDS011;5296;51.060;13.750;2023-04-28T00:41:56;9.00;;;6.85;;
10497;SDS011;5296;51.060;13.750;2023-04-28T00:46:58;7.18;;;6.55;;
10497;SDS011;5296;51.060;13.750;2023-04-28T00:52:00;7.28;;;6.60;;
10497;SDS011;5296;51.060;13.750;2023-04-28T00:57:05;7.53;;;6.75;;
10497;SDS011;5296;51.060;13.750;2023-04-28T01:02:07;8.05;;;7.25;;
10497;SDS011;5296;51.060;13.750;2023-04-28T01:07:09;8.02;;;7.20;;
10497;SDS011;5296;51.060;13.750;2023-04-28T01:12:10;7.32;;;6.63;;
10497;SDS011;5296;51.060;13.750;2023-04-28T01:17:17;7.65;;;6.85;;
10497;SDS011;5296;51.060;13.750;2023-04-28T01:22:19;10.75;;;7.22;;
10497;SDS011;5296;51.060;13.750;2023-04-28T01:27:22;7.88;;;6.82;;
10497;SDS011;5296;51.060;13.750;2023-04-28T01:32:23;7.82;;;7.03;;
10497;SDS011;5296;51.060;13.750;2023-04-28T01:37:25;9.00;;;6.50;;
10497;SDS011;5296;51.060;13.750;2023-04-28T01:42:27;8.73;;;6.82;;
10497;SDS011;5296;51.060;13.750;2023-04-28T01:47:29;7.30;;;6.32;;
10497;SDS011;5296;51.060;13.750;2023-04-28T01:52:30;11.07;;;6.97;;
10497;SDS011;5296;51.060;13.750;2023-04-28T01:57:32;7.38;;;6.68;;
10497;SDS011;5296;51.060;13.750;2023-04-28T02:02:36;8.32;;;7.13;;
10497;SDS011;5296;51.060;13.750;2023-04-28T02:07:37;7.20;;;6.53;;
10497;SDS011;5296;51.060;13.750;2023-04-28T02:12:39;10.05;;;7.65;;
10497;SDS011;5296;51.060;13.750;2023-04-28T02:17:42;8.73;;;7.30;;
10497;SDS011;5296;51.060;13.750;2023-04-28T02:22:44;9.48;;;7.57;;
10497;SDS011;5296;51.060;13.750;2023-04-28T02:27:46;7.82;;;6.78;;
10497;SDS011;5296;51.060;13.750;2023-04-28T02:32:48;9.07;;;7.43;;
10497;SDS011;5296;51.060;13.750;2023-04-28T02:37:50;9.80;;;7.30;;
10497;SDS011;5296;51.060;13.750;2023-04-28T02:42:52;8.02;;;6.70;;
10497;SDS011;5296;51.060;13.750;2023-04-28T02:47:54;8.43;;;6.90;;
10497;SDS011;5296;51.060;13.750;2023-04-28T02:52:56;8.95;;;7.60;;
10497;SDS011;5296;51.060;13.750;2023-04-28T02:57:58;7.75;;;7.05;;
10497;SDS011;5296;51.060;13.750;2023-04-28T03:02:59;9.48;;;7.35;;
10497;SDS011;5296;51.060;13.750;2023-04-28T03:08:02;20.55;;;7.85;;
10497;SDS011;5296;51.060;13.750;2023-04-28T03:13:04;12.75;;;7.55;;
10497;SDS011;5296;51.060;13.750;2023-04-28T03:18:06;7.78;;;6.88;;
10497;SDS011;5296;51.060;13.750;2023-04-28T03:23:08;8.70;;;6.97;;
10497;SDS011;5296;51.060;13.750;2023-04-28T03:28:10;8.07;;;6.95;;
10497;SDS011;5296;51.060;13.750;2023-04-28T03:33:13;7.95;;;7.13;;
10497;SDS011;5296;51.060;13.750;2023-04-28T03:38:15;7.63;;;6.63;;
10497;SDS011;5296;51.060;13.750;2023-04-28T03:43:17;8.13;;;6.82;;
10497;SDS011;5296;51.060;13.750;2023-04-28T03:48:48;8.23;;;7.03;;
10497;SDS011;5296;51.060;13.750;2023-04-28T03:53:52;9.10;;;7.35;;
10497;SDS011;5296;51.060;13.750;2023-04-28T03:58:54;8.75;;;7.00;;
10497;SDS011;5296;51.060;13.750;2023-04-28T04:03:56;8.18;;;7.22;;
10497;SDS011;5296;51.060;13.750;2023-04-28T04:08:58;9.65;;;7.03;;
10497;SDS011;5296;51.060;13.750;2023-04-28T04:13:59;9.35;;;6.78;;
10497;SDS011;5296;51.060;13.750;2023-04-28T04:19:01;7.50;;;6.80;;
10497;SDS011;5296;51.060;13.750;2023-04-28T04:24:09;7.73;;;6.90;;
10497;SDS011;5296;51.060;13.750;2023-04-28T04:29:11;7.97;;;7.07;;
10497;SDS011;5296;51.060;13.750;2023-04-28T04:34:13;8.65;;;7.75;;
10497;SDS011;5296;51.060;13.750;2023-04-28T04:39:15;8.70;;;7.35;;
10497;SDS011;5296;51.060;13.750;2023-04-28T04:44:17;9.00;;;6.80;;
10497;SDS011;5296;51.060;13.750;2023-04-28T04:49:21;8.95;;;6.50;;
10497;SDS011;5296;51.060;13.750;2023-04-28T04:54:23;9.30;;;7.18;;
10497;SDS011;5296;51.060;13.750;2023-04-28T04:59:25;9.13;;;7.30;;
10497;SDS011;5296;51.060;13.750;2023-04-28T05:04:45;10.98;;;7.32;;
10497;SDS011;5296;51.060;13.750;2023-04-28T05:09:48;8.50;;;7.03;;
10497;SDS011;5296;51.060;13.750;2023-04-28T05:14:49;11.48;;;6.95;;
10497;SDS011;5296;51.060;13.750;2023-04-28T05:19:54;9.00;;;6.90;;
10497;SDS011;5296;51.060;13.750;2023-04-28T05:24:56;8.95;;;7.00;;
10497;SDS011;5296;51.060;13.750;2023-04-28T05:29:58;12.45;;;7.35;;
10497;SDS011;5296;51.060;13.750;2023-04-28T05:35:01;8.70;;;6.53;;
10497;SDS011;5296;51.060;13.750;2023-04-28T05:40:03;9.68;;;7.07;;
10497;SDS011;5296;51.060;13.750;2023-04-28T05:45:06;12.45;;;7.55;;
10497;SDS011;5296;51.060;13.750;2023-04-28T05:50:09;8.88;;;6.90;;
10497;SDS011;5296;51.060;13.750;2023-04-28T05:55:11;9.43;;;7.05;;
10497;SDS011;5296;51.060;13.750;2023-04-28T06:00:13;8.70;;;6.18;;
10497;SDS011;5296;51.060;13.750;2023-04-28T06:05:16;7.20;;;6.38;;
10497;SDS011;5296;51.060;13.750;2023-04-28T06:10:20;9.30;;;6.30;;
10497;SDS011;5296;51.060;13.750;2023-04-28T06:15:22;9.27;;;5.85;;
10497;SDS011;5296;51.060;13.750;2023-04-28T06:20:24;7.38;;;5.97;;
10497;SDS011;5296;51.060;13.750;2023-04-28T06:25:25;10.05;;;6.30;;
10497;SDS011;5296;51.060;13.750;2023-04-28T06:30:27;8.98;;;5.80;;
10497;SDS011;5296;51.060;13.750;2023-04-28T06:35:29;6.75;;;5.15;;
10497;SDS011;5296;51.060;13.750;2023-04-28T06:40:31;10.15;;;5.60;;
10497;SDS011;5296;51.060;13.750;2023-04-28T06:45:34;11.77;;;5.90;;
10497;SDS011;5296;51.060;13.750;2023-04-28T06:50:36;9.70;;;5.80;;
10497;SDS011;5296;51.060;13.750;2023-04-28T06:55:40;7.15;;;5.53;;
10497;SDS011;5296;51.060;13.750;2023-04-28T07:00:41;8.85;;;5.88;;
10497;SDS011;5296;51.060;13.750;2023-04-28T07:05:43;9.38;;;5.75;;
10497;SDS011;5296;51.060;13.750;2023-04-28T07:10:45;7.70;;;5.38;;
10497;SDS011;5296;51.060;13.750;2023-04-28T07:15:46;8.32;;;5.45;;
10497;SDS011;5296;51.060;13.750;2023-04-28T07:20:48;10.70;;;6.82;;
10497;SDS011;5296;51.060;13.750;2023-04-28T07:25:50;7.57;;;5.30;;
10497;SDS011;5296;51.060;13.750;2023-04-28T07:30:51;9.50;;;5.22;;
10497;SDS011;5296;51.060;13.750;2023-04-28T07:35:53;10.10;;;5.40;;
10497;SDS011;5296;51.060;13.750;2023-04-28T07:40:56;9.93;;;5.90;;
10497;SDS011;5296;51.060;13.750;2023-04-28T07:45:57;5.95;;;5.35;;
10497;SDS011;5296;51.060;13.750;2023-04-28T07:50:59;9.32;;;5.05;;
10497;SDS011;5296;51.060;13.750;2023-04-28T07:56:01;7.05;;;4.88;;
10497;SDS011;5296;51.060;13.750;2023-04-28T08:01:03;8.82;;;4.97;;
10497;SDS011;5296;51.060;13.750;2023-04-28T08:06:05;9.15;;;4.78;;
10497;SDS011;5296;51.060;13.750;2023-04-28T08:11:07;7.43;;;5.13;;
10497;SDS011;5296;51.060;13.750;2023-04-28T08:16:09;6.88;;;4.90;;
10497;SDS011;5296;51.060;13.750;2023-04-28T08:21:11;7.22;;;4.68;;
10497;SDS011;5296;51.060;13.750;2023-04-28T08:26:13;7.50;;;4.93;;
10497;SDS011;5296;51.060;13.750;2023-04-28T08:31:15;7.32;;;4.97;;
10497;SDS011;5296;51.060;13.750;2023-04-28T08:36:16;6.47;;;4.63;;
10497;SDS011;5296;51.060;13.750;2023-04-28T08:41:18;7.60;;;4.90;;
10497;SDS011;5296;51.060;13.750;2023-04-28T08:46:22;8.25;;;4.60;;
10497;SDS011;5296;51.060;13.750;2023-04-28T08:51:33;9.70;;;4.80;;
10497;SDS011;5296;51.060;13.750;2023-04-28T08:56:42;9.55;;;4.75;;
10497;SDS011;5296;51.060;13.750;2023-04-28T09:01:47;6.43;;;4.45;;
10497;SDS011;5296;51.060;13.750;2023-04-28T09:06:49;7.38;;;4.25;;
10497;SDS011;5296;51.060;13.750;2023-04-28T09:12:00;5.60;;;4.20;;
10497;SDS011;5296;51.060;13.750;2023-04-28T09:17:10;5.05;;;3.80;;
10497;SDS011;5296;51.060;13.750;2023-04-28T09:22:16;5.75;;;4.10;;
10497;SDS011;5296;51.060;13.750;2023-04-28T09:27:27;6.22;;;4.57;;
10497;SDS011;5296;51.060;13.750;2023-04-28T09:32:30;7.35;;;3.85;;
10497;SDS011;5296;51.060;13.750;2023-04-28T09:37:32;5.80;;;4.05;;
10497;SDS011;5296;51.060;13.750;2023-04-28T09:47:44;6.55;;;3.70;;
10497;SDS011;5296;51.060;13.750;2023-04-28T09:52:55;6.95;;;3.20;;
10497;SDS011;5296;51.060;13.750;2023-04-28T09:57:57;7.45;;;3.03;;
10497;SDS011;5296;51.060;13.750;2023-04-28T10:03:03;4.15;;;3.25;;
10497;SDS011;5296;51.060;13.750;2023-04-28T10:08:05;8.57;;;3.30;;
10497;SDS011;5296;51.060;13.750;2023-04-28T10:13:07;7.13;;;3.42;;
10497;SDS011;5296;51.060;13.750;2023-04-28T10:18:09;5.97;;;3.22;;
10497;SDS011;5296;51.060;13.750;2023-04-28T10:28:36;6.50;;;3.15;;
10497;SDS011;5296;51.060;13.750;2023-04-28T10:33:44;5.57;;;3.33;;
10497;SDS011;5296;51.060;13.750;2023-04-28T11:00:33;5.43;;;3.85;;
10497;SDS011;5296;51.060;13.750;2023-04-28T11:05:34;4.50;;;3.92;;
10497;SDS011;5296;51.060;13.750;2023-04-28T11:16:15;5.78;;;4.55;;
10497;SDS011;5296;51.060;13.750;2023-04-28T11:21:18;9.48;;;5.22;;
10497;SDS011;5296;51.060;13.750;2023-04-28T11:26:21;4.75;;;4.20;;
10497;SDS011;5296;51.060;13.750;2023-04-28T11:31:24;8.68;;;4.47;;
10497;SDS011;5296;51.060;13.750;2023-04-28T11:36:36;5.03;;;4.45;;
10497;SDS011;5296;51.060;13.750;2023-04-28T11:41:39;6.78;;;4.32;;
10497;SDS011;5296;51.060;13.750;2023-04-28T11:46:45;7.53;;;5.07;;
10497;SDS011;5296;51.060;13.750;2023-04-28T11:51:51;7.10;;;5.40;;
10497;SDS011;5296;51.060;13.750;2023-04-28T11:56:54;8.05;;;5.45;;
10497;SDS011;5296;51.060;13.750;2023-04-28T12:01:58;7.25;;;5.18;;
10497;SDS011;5296;51.060;13.750;2023-04-28T12:07:05;5.45;;;4.93;;
10497;SDS011;5296;51.060;13.750;2023-04-28T12:12:11;5.65;;;4.68;;
10497;SDS011;5296;51.060;13.750;2023-04-28T12:22:28;6.47;;;4.55;;
10497;SDS011;5296;51.060;13.750;2023-04-28T12:27:30;5.28;;;4.40;;
10497;SDS011;5296;51.060;13.750;2023-04-28T12:37:40;6.50;;;4.30;;
10497;SDS011;5296;51.060;13.750;2023-04-28T12:42:43;6.60;;;5.00;;
10497;SDS011;5296;51.060;13.750;2023-04-28T12:47:44;5.43;;;4.80;;
10497;SDS011;5296;51.060;13.750;2023-04-28T12:52:46;7.82;;;6.07;;
10497;SDS011;5296;51.060;13.750;2023-04-28T12:57:48;8.73;;;6.60;;
10497;SDS011;5296;51.060;13.750;2023-04-28T13:02:49;7.35;;;6.55;;
10497;SDS011;5296;51.060;13.750;2023-04-28T13:07:52;13.85;;;8.02;;
10497;SDS011;5296;51.060;13.750;2023-04-28T13:12:54;10.15;;;8.07;;
10497;SDS011;5296;51.060;13.750;2023-04-28T13:17:55;10.20;;;8.10;;
10497;SDS011;5296;51.060;13.750;2023-04-28T13:22:59;12.63;;;10.43;;
10497;SDS011;5296;51.060;13.750;2023-04-28T13:28:01;9.77;;;8.77;;
10497;SDS011;5296;51.060;13.750;2023-04-28T13:33:03;9.43;;;7.85;;
10497;SDS011;5296;51.060;13.750;2023-04-28T13:38:05;9.48;;;7.78;;
10497;SDS011;5296;51.060;13.750;2023-04-28T13:43:07;9.63;;;8.50;;
10497;SDS011;5296;51.060;13.750;2023-04-28T13:48:08;11.55;;;8.45;;
10497;SDS011;5296;51.060;13.750;2023-04-28T13:53:10;10.35;;;8.40;;
10497;SDS011;5296;51.060;13.750;2023-04-28T13:58:12;10.02;;;7.93;;
10497;SDS011;5296;51.060;13.750;2023-04-28T14:03:14;8.98;;;8.07;;
10497;SDS011;5296;51.060;13.750;2023-04-28T14:08:16;10.15;;;8.10;;
10497;SDS011;5296;51.060;13.750;2023-04-28T14:13:20;10.93;;;8.35;;
10497;SDS011;5296;51.060;13.750;2023-04-28T14:18:22;12.60;;;8.05;;
10497;SDS011;5296;51.060;13.750;2023-04-28T14:23:24;10.60;;;7.85;;
10497;SDS011;5296;51.060;13.750;2023-04-28T14:28:26;10.30;;;8.45;;
10497;SDS011;5296;51.060;13.750;2023-04-28T14:33:28;9.85;;;7.75;;
10497;SDS011;5296;51.060;13.750;2023-04-28T14:38:30;8.85;;;7.60;;
10497;SDS011;5296;51.060;13.750;2023-04-28T14:43:32;8.27;;;7.32;;
10497;SDS011;5296;51.060;13.750;2023-04-28T14:48:34;9.27;;;7.88;;
10497;SDS011;5296;51.060;13.750;2023-04-28T14:53:36;8.50;;;7.43;;
10497;SDS011;5296;51.060;13.750;2023-04-28T14:58:38;10.10;;;7.38;;
10497;SDS011;5296;51.060;13.750;2023-04-28T15:03:39;8.27;;;7.38;;
10497;SDS011;5296;51.060;13.750;2023-04-28T15:08:42;7.90;;;6.90;;
10497;SDS011;5296;51.060;13.750;2023-04-28T15:13:43;8.85;;;7.05;;
10497;SDS011;5296;51.060;13.750;2023-04-28T15:18:45;7.68;;;6.60;;
10497;SDS011;5296;51.060;13.750;2023-04-28T15:23:47;9.32;;;6.90;;
10497;SDS011;5296;51.060;13.750;2023-04-28T15:28:49;8.02;;;6.47;;
10497;SDS011;5296;51.060;13.750;2023-04-28T15:33:50;9.10;;;6.13;;
10497;SDS011;5296;51.060;13.750;2023-04-28T15:38:53;19.35;;;7.72;;
10497;SDS011;5296;51.060;13.750;2023-04-28T15:43:54;7.10;;;6.40;;
10497;SDS011;5296;51.060;13.750;2023-04-28T15:48:57;8.75;;;7.15;;
10497;SDS011;5296;51.060;13.750;2023-04-28T15:53:59;7.35;;;6.65;;
10497;SDS011;5296;51.060;13.750;2023-04-28T15:59:00;10.75;;;7.30;;
10497;SDS011;5296;51.060;13.750;2023-04-28T16:04:02;10.95;;;6.15;;
10497;SDS011;5296;51.060;13.750;2023-04-28T16:09:04;7.72;;;6.95;;
10497;SDS011;5296;51.060;13.750;2023-04-28T16:14:06;9.10;;;6.88;;
10497;SDS011;5296;51.060;13.750;2023-04-28T16:19:07;8.25;;;6.10;;
10497;SDS011;5296;51.060;13.750;2023-04-28T16:24:10;9.20;;;6.18;;
10497;SDS011;5296;51.060;13.750;2023-04-28T16:29:12;6.55;;;5.82;;
10497;SDS011;5296;51.060;13.750;2023-04-28T16:34:15;8.80;;;5.75;;
10497;SDS011;5296;51.060;13.750;2023-04-28T16:39:17;6.65;;;5.70;;
10497;SDS011;5296;51.060;13.750;2023-04-28T16:44:19;7.50;;;6.35;;
10497;SDS011;5296;51.060;13.750;2023-04-28T16:49:21;8.38;;;6.15;;
10497;SDS011;5296;51.060;13.750;2023-04-28T16:54:26;8.13;;;6.47;;
10497;SDS011;5296;51.060;13.750;2023-04-28T16:59:28;8.18;;;6.18;;
10497;SDS011;5296;51.060;13.750;2023-04-28T17:04:30;10.32;;;7.07;;
10497;SDS011;5296;51.060;13.750;2023-04-28T17:09:32;7.40;;;6.57;;
10497;SDS011;5296;51.060;13.750;2023-04-28T17:14:36;9.90;;;6.68;;
10497;SDS011;5296;51.060;13.750;2023-04-28T17:19:38;8.90;;;6.10;;
10497;SDS011;5296;51.060;13.750;2023-04-28T17:24:40;7.63;;;6.65;;
10497;SDS011;5296;51.060;13.750;2023-04-28T17:29:42;8.18;;;6.25;;
10497;SDS011;5296;51.060;13.750;2023-04-28T17:34:43;7.32;;;5.53;;
10497;SDS011;5296;51.060;13.750;2023-04-28T17:39:47;7.72;;;6.22;;
10497;SDS011;5296;51.060;13.750;2023-04-28T17:44:50;7.03;;;5.60;;
10497;SDS011;5296;51.060;13.750;2023-04-28T17:49:52;5.90;;;5.32;;
10497;SDS011;5296;51.060;13.750;2023-04-28T17:54:55;6.45;;;5.03;;
10497;SDS011;5296;51.060;13.750;2023-04-28T17:59:56;5.80;;;5.00;;
10497;SDS011;5296;51.060;13.750;2023-04-28T18:04:58;6.63;;;5.38;;
10497;SDS011;5296;51.060;13.750;2023-04-28T18:10:00;6.72;;;5.05;;
10497;SDS011;5296;51.060;13.750;2023-04-28T18:15:02;6.55;;;4.97;;
10497;SDS011;5296;51.060;13.750;2023-04-28T18:20:04;6.22;;;5.63;;
10497;SDS011;5296;51.060;13.750;2023-04-28T18:25:07;6.25;;;5.15;;
10497;SDS011;5296;51.060;13.750;2023-04-28T18:30:09;7.97;;;5.13;;
10497;SDS011;5296;51.060;13.750;2023-04-28T18:35:11;8.30;;;6.50;;
10497;SDS011;5296;51.060;13.750;2023-04-28T18:40:13;9.52;;;6.40;;
10497;SDS011;5296;51.060;13.750;2023-04-28T18:45:14;6.63;;;5.47;;
10497;SDS011;5296;51.060;13.750;2023-04-28T18:50:16;6.80;;;5.35;;
10497;SDS011;5296;51.060;13.750;2023-04-28T18:55:18;5.78;;;5.18;;
10497;SDS011;5296;51.060;13.750;2023-04-28T19:00:20;6.55;;;5.65;;
10497;SDS011;5296;51.060;13.750;2023-04-28T19:05:22;8.05;;;6.25;;
10497;SDS011;5296;51.060;13.750;2023-04-28T19:10:24;7.20;;;5.97;;
10497;SDS011;5296;51.060;13.750;2023-04-28T19:15:26;7.72;;;6.18;;
10497;SDS011;5296;51.060;13.750;2023-04-28T19:20:28;9.65;;;6.82;;
10497;SDS011;5296;51.060;13.750;2023-04-28T19:25:29;9.30;;;6.90;;
10497;SDS011;5296;51.060;13.750;2023-04-28T19:30:34;8.68;;;7.80;;
10497;SDS011;5296;51.060;13.750;2023-04-28T19:35:35;9.30;;;7.72;;
10497;SDS011;5296;51.060;13.750;2023-04-28T19:40:37;10.80;;;8.30;;
10497;SDS011;5296;51.060;13.750;2023-04-28T19:45:40;8.85;;;7.93;;
10497;SDS011;5296;51.060;13.750;2023-04-28T19:50:42;9.00;;;8.20;;
10497;SDS011;5296;51.060;13.750;2023-04-28T19:55:44;9.48;;;8.57;;
10497;SDS011;5296;51.060;13.750;2023-04-28T20:00:46;10.02;;;8.55;;
10497;SDS011;5296;51.060;13.750;2023-04-28T20:05:48;10.32;;;9.05;;
10497;SDS011;5296;51.060;13.750;2023-04-28T20:10:50;9.88;;;8.65;;
10497;SDS011;5296;51.060;13.750;2023-04-28T20:15:53;9.65;;;8.75;;
10497;SDS011;5296;51.060;13.750;2023-04-28T20:20:55;11.52;;;8.68;;
10497;SDS011;5296;51.060;13.750;2023-04-28T20:25:57;10.77;;;8.85;;
10497;SDS011;5296;51.060;13.750;2023-04-28T20:30:59;9.73;;;8.73;;
10497;SDS011;5296;51.060;13.750;2023-04-28T20:36:01;9.68;;;8.60;;
10497;SDS011;5296;51.060;13.750;2023-04-28T20:41:04;10.02;;;8.30;;
10497;SDS011;5296;51.060;13.750;2023-04-28T20:46:08;9.98;;;8.68;;
10497;SDS011;5296;51.060;13.750;2023-04-28T20:51:10;9.27;;;8.38;;
10497;SDS011;5296;51.060;13.750;2023-04-28T20:56:12;10.38;;;7.97;;
10497;SDS011;5296;51.060;13.750;2023-04-28T21:01:14;8.82;;;7.95;;
10497;SDS011;5296;51.060;13.750;2023-04-28T21:06:15;9.30;;;8.40;;
10497;SDS011;5296;51.060;13.750;2023-04-28T21:11:17;9.98;;;8.98;;
10497;SDS011;5296;51.060;13.750;2023-04-28T21:16:19;11.73;;;9.40;;
10497;SDS011;5296;51.060;13.750;2023-04-28T21:21:22;11.32;;;9.77;;
10497;SDS011;5296;51.060;13.750;2023-04-28T21:26:23;9.88;;;8.88;;
10497;SDS011;5296;51.060;13.750;2023-04-28T21:31:25;9.57;;;8.57;;
10497;SDS011;5296;51.060;13.750;2023-04-28T21:36:28;10.65;;;9.52;;
10497;SDS011;5296;51.060;13.750;2023-04-28T21:41:30;10.70;;;9.23;;
10497;SDS011;5296;51.060;13.750;2023-04-28T21:46:32;11.00;;;8.70;;
10497;SDS011;5296;51.060;13.750;2023-04-28T21:51:34;9.05;;;8.20;;
10497;SDS011;5296;51.060;13.750;2023-04-28T21:56:36;9.77;;;8.73;;
10497;SDS011;5296;51.060;13.750;2023-04-28T22:01:38;9.65;;;8.68;;
10497;SDS011;5296;51.060;13.750;2023-04-28T22:06:40;12.13;;;9.10;;
10497;SDS011;5296;51.060;13.750;2023-04-28T22:11:42;8.88;;;7.97;;
10497;SDS011;5296;51.060;13.750;2023-04-28T22:16:43;9.57;;;8.13;;
10497;SDS011;5296;51.060;13.750;2023-04-28T22:21:45;10.15;;;8.27;;
10497;SDS011;5296;51.060;13.750;2023-04-28T22:26:47;9.48;;;7.97;;
10497;SDS011;5296;51.060;13.750;2023-04-28T22:31:49;9.50;;;8.45;;
10497;SDS011;5296;51.060;13.750;2023-04-28T22:36:51;9.50;;;8.52;;
10497;SDS011;5296;51.060;13.750;2023-04-28T22:41:53;9.20;;;8.30;;
10497;SDS011;5296;51.060;13.750;2023-04-28T22:46:54;9.50;;;8.60;;
10497;SDS011;5296;51.060;13.750;2023-04-28T22:51:56;9.18;;;8.38;;
10497;SDS011;5296;51.060;13.750;2023-04-28T22:56:58;10.73;;;9.10;;
10497;SDS011;5296;51.060;13.750;2023-04-28T23:02:00;10.70;;;9.60;;
10497;SDS011;5296;51.060;13.750;2023-04-28T23:07:03;12.75;;;8.90;;
10497;SDS011;5296;51.060;13.750;2023-04-28T23:12:05;11.77;;;10.35;;
10497;SDS011;5296;51.060;13.750;2023-04-28T23:17:06;12.23;;;11.02;;
10497;SDS011;5296;51.060;13.750;2023-04-28T23:22:08;14.50;;;11.25;;
10497;SDS011;5296;51.060;13.750;2023-04-28T23:27:10;13.20;;;11.93;;
10497;SDS011;5296;51.060;13.750;2023-04-28T23:32:12;14.07;;;12.55;;
10497;SDS011;5296;51.060;13.750;2023-04-28T23:37:13;14.23;;;12.75;;
10497;SDS011;5296;51.060;13.750;2023-04-28T23:42:15;13.88;;;12.57;;
10497;SDS011;5296;51.060;13.750;2023-04-28T23:47:17;13.85;;;12.45;;
10497;SDS011;5296;51.060;13.750;2023-04-28T23:52:19;14.73;;;12.57;;
10497;SDS011;5296;51.060;13.750;2023-04-28T23:57:20;17.48;;;12.88;;
